Terminal Aerodrome Forecast
Issued by NWS

Home | Current Version | Previous Version | Text Only | Print | Product List | Glossary On
Versions: 1 2 3 4 5 6 7 8 9 10 11 12 13 14 15 16 17 18 19 20 21 22 23 24
000
FTAK31 PANC 050818 AAA
TAFADQ
TAF AMD
PADQ 050818Z 0508/0606 14010KT P6SM VCSH BKN035 OVC090
     FM051200 11007KT P6SM VCSH BKN025 OVC080
     FM051500 10012KT P6SM -RA BKN015 OVC030=

USA.gov is the U.S. government's official web portal to all federal, state and local government web resources and services.